This is the latest recevied weather packets stored in our database for station/object NUUKSIO. If no packets are shown the sender has not sent any weather packets the latest 10 day(s).
| Time | Temp. | Humidity | Pressure | Rain* | Wind** | Luminosity | Snow |
|---|---|---|---|---|---|---|---|
| 1777442807 | 4.44° C | 44% | 1025.3 hPa | 0 mm | - | - | - |
| 1777441607 | 3.89° C | 47% | 1025.3 hPa | 0 mm | - | - | - |
| 1777440407 | 3.33° C | 50% | 1025.4 hPa | 0 mm | - | - | - |
| 1777439207 | 2.78° C | 53% | 1025.3 hPa | 0 mm | - | - | - |
| 1777438007 | 2.22° C | 55% | 1025.2 hPa | 0 mm | - | - | - |
| 1777436807 | 2.22° C | 56% | 1025.2 hPa | 0 mm | - | - | - |
| 1777435607 | 1.67° C | 57% | 1025 hPa | 0 mm | - | - | - |
| 1777434407 | 1.67° C | 56% | 1024.9 hPa | 0 mm | - | - | - |
| 1777433207 | 1.11° C | 58% | 1024.8 hPa | 0 mm | - | - | - |
| 1777432007 | 1.11° C | 58% | 1024.5 hPa | 0 mm | - | - | - |
| 1777430807 | 1.11° C | 58% | 1024.3 hPa | 0 mm | - | - | - |
| 1777429607 | 1.11° C | 58% | 1024.1 hPa | 0 mm | - | - | - |
| 1777428407 | 1.11° C | 58% | 1024.1 hPa | 0 mm | - | - | - |
| 1777427206 | 1.67° C | 59% | 1024 hPa | 0 mm | - | - | - |
| 1777426006 | 1.67° C | 56% | 1023.8 hPa | 0 mm | - | - | - |
| 1777424807 | 1.67° C | 58% | 1023.6 hPa | 0 mm | - | - | - |
| 1777423606 | 1.67° C | 57% | 1023.5 hPa | 0 mm | - | - | - |
| 1777422407 | 1.67° C | 58% | 1023.4 hPa | 0 mm | - | - | - |
| 1777421206 | 1.67° C | 56% | 1023.5 hPa | 0 mm | - | - | - |
| 1777420006 | 1.67° C | 57% | 1023.4 hPa | 0 mm | - | - | - |
| 1777418806 | 1.67° C | 55% | 1023.3 hPa | 0 mm | - | - | - |
| 1777417606 | 1.67° C | 55% | 1023.3 hPa | 0 mm | - | - | - |
| 1777416406 | 1.11° C | 58% | 1023.2 hPa | 0 mm | - | - | - |
| 1777415207 | 1.11° C | 59% | 1023.2 hPa | 0 mm | - | - | - |
| 1777414006 | 0.56° C | 60% | 1023.1 hPa | 0 mm | - | - | - |
* Rain latest hour (hover to see other rain measurements)
** Current wind speed in m/s (hover to see current wind gust speed)